Time;durP1;ratioP1;P1;durP2;ratioP2;P2;SDS_P1;SDS_P2;PMS_P1;PMS_P2;Temp;Humidity;BMP_temperature;BMP_pressure;BME280_temperature;BME280_humidity;BME280_pressure;Samples;Min_cycle;Max_cycle;Signal;HPM_P1;HPM_P2
2022/12/06 00:01:33;;;;;;;11.75;7.40;;;;;;;9.52;63.58;101923.34;4917843;29;20048;-68
2022/12/06 00:04:03;;;;;;;9.65;6.55;;;;;;;9.53;63.51;101923.28;4917968;29;20540;-67
2022/12/06 00:06:32;;;;;;;9.27;6.85;;;;;;;9.53;63.36;101917.91;4901113;29;20048;-68
2022/12/06 00:08:59;;;;;;;11.90;7.43;;;;;;;9.53;63.44;101923.28;4917784;29;20048;-68
2022/12/06 00:11:28;;;;;;;8.75;6.50;;;;;;;9.53;63.63;101920.59;4917602;29;20121;-68
2022/12/06 00:14:04;;;;;;;11.80;7.20;;;;;;;9.55;63.64;101917.84;4917530;29;20040;-67
2022/12/06 00:16:32;;;;;;;8.48;5.63;;;;;;;9.58;63.68;101915.00;4917955;29;20423;-68
2022/12/06 00:18:59;;;;;;;9.30;6.15;;;;;;;9.57;63.47;101915.94;4917529;29;20135;-67
2022/12/06 00:21:29;;;;;;;11.20;6.63;;;;;;;9.57;63.58;101922.19;4917548;29;20044;-68
2022/12/06 00:24:20;;;;;;;10.68;6.35;;;;;;;9.57;63.45;101911.47;4917661;29;20060;-68
2022/12/06 00:26:49;;;;;;;8.90;5.85;;;;;;;9.56;63.61;101920.44;4903008;29;20089;-68
2022/12/06 00:29:19;;;;;;;8.43;6.13;;;;;;;9.53;63.65;101914.38;4898496;29;20055;-68
2022/12/06 00:31:46;;;;;;;10.15;5.85;;;;;;;9.51;63.42;101916.25;4898847;29;20053;-68
2022/12/06 00:34:13;;;;;;;8.18;5.75;;;;;;;9.50;63.28;101923.44;4898488;29;20054;-67
2022/12/06 00:36:41;;;;;;;8.10;5.82;;;;;;;9.51;63.47;101921.63;4898463;29;20041;-67
2022/12/06 00:39:10;;;;;;;8.32;5.68;;;;;;;9.48;63.44;101914.59;4898403;29;20048;-67
2022/12/06 00:41:38;;;;;;;8.93;6.38;;;;;;;9.46;63.47;101913.81;4898123;29;20523;-67
2022/12/06 00:44:05;;;;;;;8.40;5.55;;;;;;;9.46;63.28;101915.63;4898338;29;20040;-68
2022/12/06 00:46:33;;;;;;;9.73;6.40;;;;;;;9.44;63.52;101918.38;4898261;29;20055;-68
2022/12/06 00:49:01;;;;;;;11.57;7.40;;;;;;;9.45;63.48;101917.44;4899068;29;20045;-67
2022/12/06 00:51:29;;;;;;;8.95;6.28;;;;;;;9.46;63.52;101913.81;4897911;29;20040;-68
2022/12/06 00:53:57;;;;;;;8.80;5.88;;;;;;;9.47;63.59;101914.66;4898182;29;20041;-67
2022/12/06 00:56:25;;;;;;;10.80;5.53;;;;;;;9.48;63.76;101917.28;4898211;29;20500;-67
2022/12/06 00:58:52;;;;;;;7.22;4.85;;;;;;;9.48;63.68;101925.31;4898001;29;20100;-66
2022/12/06 01:01:22;;;;;;;8.50;5.10;;;;;;;9.49;63.63;101927.06;4898302;29;20112;-67
2022/12/06 01:03:50;;;;;;;7.10;5.28;;;;;;;9.50;63.47;101920.75;4898271;29;20055;-67
2022/12/06 01:06:21;;;;;;;8.27;5.50;;;;;;;9.50;63.76;101923.44;4898494;29;20048;-67
2022/12/06 01:08:48;;;;;;;8.95;5.90;;;;;;;9.51;63.68;101924.31;4898144;29;20048;-68
2022/12/06 01:11:16;;;;;;;6.55;5.05;;;;;;;9.51;63.60;101927.84;4898135;29;20040;-67
2022/12/06 01:13:43;;;;;;;6.88;5.18;;;;;;;9.53;63.63;101925.09;4898192;29;20045;-67
2022/12/06 01:16:13;;;;;;;6.72;4.55;;;;;;;9.53;63.68;101930.47;4898101;29;20056;-67
2022/12/06 01:18:41;;;;;;;7.65;4.82;;;;;;;9.52;63.81;101926.91;4898095;29;20045;-67
2022/12/06 01:21:11;;;;;;;7.22;5.63;;;;;;;9.50;63.69;101920.75;4898647;29;20444;-68
2022/12/06 01:23:38;;;;;;;6.93;4.95;;;;;;;9.51;63.66;101921.63;4898116;29;20048;-68
2022/12/06 01:26:05;;;;;;;7.55;5.10;;;;;;;9.49;63.55;101924.38;4899077;29;20056;-67
2022/12/06 01:28:32;;;;;;;9.57;5.10;;;;;;;9.50;63.80;101919.88;4897999;29;20519;-68
2022/12/06 01:30:59;;;;;;;8.52;5.15;;;;;;;9.52;63.89;101921.53;4881375;29;20096;-68
2022/12/06 01:33:25;;;;;;;8.10;5.20;;;;;;;9.52;63.69;101924.22;4897750;29;20488;-67
2022/12/06 01:35:52;;;;;;;6.93;4.80;;;;;;;9.54;63.86;101921.47;4933712;29;20423;-68
2022/12/06 01:38:18;;;;;;;7.22;5.22;;;;;;;9.53;63.59;101923.28;4935900;29;20056;-67
2022/12/06 01:40:46;;;;;;;6.65;4.78;;;;;;;9.55;63.61;101918.72;4935910;29;20048;-68
2022/12/06 01:43:36;;;;;;;8.30;5.10;;;;;;;9.56;63.71;101923.13;4935528;29;20137;-67
2022/12/06 01:46:27;;;;;;;7.35;5.20;;;;;;;9.57;63.70;101914.13;4918704;29;20087;-68
2022/12/06 01:49:12;;;;;;;7.35;4.72;;;;;;;9.60;63.59;101918.47;4918462;29;20417;-67
2022/12/06 01:51:55;;;;;;;7.47;4.60;;;;;;;9.62;63.73;101916.59;4935762;29;20051;-68
2022/12/06 01:54:23;;;;;;;7.47;4.63;;;;;;;9.66;63.71;101914.63;4935495;29;20479;-68
2022/12/06 01:56:51;;;;;;;7.45;5.30;;;;;;;9.66;63.50;101911.94;4935603;29;20106;-68
2022/12/06 01:59:19;;;;;;;9.00;5.32;;;;;;;9.65;63.64;101916.44;4935460;29;20091;-68
2022/12/06 02:01:47;;;;;;;7.18;4.93;;;;;;;9.66;63.66;101909.25;4935823;29;20048;-68
2022/12/06 02:04:15;;;;;;;7.00;5.03;;;;;;;9.65;63.75;101911.06;4938897;29;20511;-68
2022/12/06 02:06:43;;;;;;;9.32;4.72;;;;;;;9.65;63.79;101911.06;4938986;29;20051;-68
2022/12/06 02:09:10;;;;;;;9.07;5.50;;;;;;;9.67;63.54;101914.56;4937790;29;20050;-67
2022/12/06 02:11:37;;;;;;;7.60;5.50;;;;;;;9.66;63.40;101909.25;4932298;29;20036;-68
2022/12/06 02:14:09;;;;;;;7.32;5.43;;;;;;;9.67;63.60;101906.53;4902813;29;20052;-67
2022/12/06 02:16:54;;;;;;;7.40;5.35;;;;;;;9.65;63.52;101905.72;4919660;29;20048;-68
2022/12/06 02:20:02;;;;;;;7.82;5.30;;;;;;;9.64;63.46;101908.47;4919939;29;20487;-67
2022/12/06 02:22:50;;;;;;;6.63;5.15;;;;;;;9.63;63.67;101917.47;4919482;29;20503;-68
2022/12/06 02:25:48;;;;;;;8.27;5.60;;;;;;;9.59;63.61;101913.19;4919651;29;20041;-68
2022/12/06 02:28:37;;;;;;;8.05;5.65;;;;;;;9.57;63.75;101913.28;4920048;29;20052;-68
2022/12/06 02:31:11;;;;;;;9.88;6.50;;;;;;;9.57;63.78;101908.78;4919507;29;20100;-67
2022/12/06 02:33:44;;;;;;;9.30;6.40;;;;;;;9.57;63.76;101910.59;4919524;29;20426;-68
2022/12/06 02:36:19;;;;;;;13.80;7.32;;;;;;;9.54;63.82;101906.25;4918898;29;20099;-67
2022/12/06 02:38:51;;;;;;;10.85;7.07;;;;;;;9.52;63.82;101908.13;4935485;29;20471;-67
2022/12/06 02:41:45;;;;;;;9.57;6.38;;;;;;;9.52;63.71;101899.22;4938348;29;20047;-67
2022/12/06 02:44:22;;;;;;;8.50;6.50;;;;;;;9.53;63.88;101890.22;4938130;29;20052;-67
2022/12/06 02:46:51;;;;;;;10.13;7.30;;;;;;;9.50;63.81;101899.28;4938801;29;20051;-67
2022/12/06 02:49:20;;;;;;;9.68;6.43;;;;;;;9.50;63.75;101898.44;4937549;29;20095;-68
2022/12/06 02:51:49;;;;;;;10.68;7.13;;;;;;;9.49;63.72;101891.34;4938463;29;20039;-68
2022/12/06 02:54:16;;;;;;;9.40;7.22;;;;;;;9.48;63.88;101885.09;4938248;29;20099;-68
2022/12/06 02:56:43;;;;;;;11.30;7.43;;;;;;;9.47;63.86;101888.72;4923068;29;20099;-68
2022/12/06 02:59:09;;;;;;;10.98;8.02;;;;;;;9.46;63.71;101884.31;4918927;29;20044;-68
2022/12/06 03:01:42;;;;;;;10.60;7.38;;;;;;;9.47;63.94;101890.53;4921166;29;20104;-68
2022/12/06 03:04:08;;;;;;;10.05;7.20;;;;;;;9.48;63.97;101881.56;4921681;29;20055;-68
2022/12/06 03:07:08;;;;;;;10.98;7.15;;;;;;;9.48;63.76;101884.22;4927214;29;20043;-68
2022/12/06 03:10:02;;;;;;;8.40;6.78;;;;;;;9.47;63.97;101883.38;4937805;29;20498;-67
2022/12/06 03:12:41;;;;;;;13.48;7.55;;;;;;;9.47;63.86;101891.41;4937565;29;20055;-67
2022/12/06 03:15:18;;;;;;;11.45;7.55;;;;;;;9.45;63.79;101879.88;4937059;29;20081;-66
2022/12/06 03:17:51;;;;;;;9.95;7.05;;;;;;;9.44;64.02;101888.88;4937682;29;20087;-67
2022/12/06 03:20:25;;;;;;;9.00;7.20;;;;;;;9.45;63.90;101889.75;4938385;29;20047;-68
2022/12/06 03:23:01;;;;;;;10.80;7.43;;;;;;;9.44;63.81;101893.38;4933930;29;20051;-67
2022/12/06 03:25:28;;;;;;;;;;;;;;;9.45;63.99;101889.75;4920891;29;20047;-67
2022/12/06 03:27:58;;;;;;;10.40;7.10;;;;;;;9.48;63.54;101890.47;4937626;29;20305;-67
2022/12/06 03:30:24;;;;;;;11.15;7.65;;;;;;;9.47;63.88;101894.09;4936834;29;20388;-67
2022/12/06 03:32:51;;;;;;;10.40;6.70;;;;;;;9.46;63.80;101895.03;4936466;29;20048;-67
2022/12/06 03:35:26;;;;;;;11.82;7.90;;;;;;;9.45;64.09;101895.97;4937368;29;20121;-68
2022/12/06 03:38:00;;;;;;;10.82;7.43;;;;;;;9.44;63.79;101888.00;4920377;29;20036;-68
2022/12/06 03:40:31;;;;;;;12.98;7.97;;;;;;;9.46;63.93;101888.81;4936111;29;20047;-68
2022/12/06 03:42:59;;;;;;;11.35;7.22;;;;;;;9.46;63.94;101888.81;4937002;29;20058;-69
2022/12/06 03:45:45;;;;;;;10.07;7.43;;;;;;;9.45;64.21;101893.31;4920255;29;20052;-67
2022/12/06 03:48:18;;;;;;;9.40;7.07;;;;;;;9.46;64.03;101886.13;4936865;29;20072;-68
2022/12/06 03:51:04;;;;;;;8.93;7.22;;;;;;;9.45;64.03;101879.03;4937164;29;20055;-68
2022/12/06 03:53:32;;;;;;;11.75;7.45;;;;;;;9.46;64.05;101878.06;4936868;29;20407;-67
2022/12/06 03:55:59;;;;;;;11.65;7.82;;;;;;;9.46;64.17;101887.00;4930731;29;20052;-67
2022/12/06 03:58:25;;;;;;;10.35;7.13;;;;;;;9.46;64.20;101887.00;4901075;29;20118;-67
2022/12/06 04:00:52;;;;;;;14.82;8.13;;;;;;;9.45;63.88;101882.56;4917495;29;20048;-67
2022/12/06 04:03:18;;;;;;;10.07;7.13;;;;;;;9.48;64.12;101881.56;4917620;29;20108;-67
2022/12/06 04:05:45;;;;;;;12.15;7.45;;;;;;;9.47;63.86;101894.09;4917749;29;20404;-67
2022/12/06 04:08:11;;;;;;;11.07;8.10;;;;;;;9.49;64.16;101884.16;4900737;29;20052;-67
2022/12/06 04:10:38;;;;;;;13.68;8.27;;;;;;;9.52;63.98;101889.38;4901056;29;20051;-68
2022/12/06 04:13:05;;;;;;;17.95;8.18;;;;;;;9.55;63.93;101891.03;4916790;29;20072;-68
2022/12/06 04:15:36;;;;;;;14.07;8.35;;;;;;;9.53;63.92;101883.06;4900772;29;20052;-68
2022/12/06 04:18:13;;;;;;;15.50;7.75;;;;;;;9.52;64.12;101885.81;4917686;29;20055;-67
2022/12/06 04:23:39;;;;;;;16.30;8.07;;;;;;;9.49;64.20;101878.78;4917357;29;20499;-66
2022/12/06 04:26:07;;;;;;;11.25;7.53;;;;;;;9.47;64.08;101882.50;4917869;29;20360;-66
2022/12/06 04:39:35;;;;;;;12.10;8.10;;;;;;;9.39;64.34;101888.25;4936535;29;20044;-67
2022/12/06 04:44:47;;;;;;;17.63;8.63;;;;;;;9.40;64.33;101892.66;4936362;29;20048;-67
2022/12/06 04:47:13;;;;;;;12.50;8.07;;;;;;;9.39;64.12;101895.41;4925081;29;20547;-66
2022/12/06 04:49:40;;;;;;;14.65;8.63;;;;;;;9.37;64.16;101892.81;4916750;29;20040;-67
2022/12/06 04:52:08;;;;;;;11.80;8.13;;;;;;;9.39;64.32;101887.38;4917223;29;20044;-66
2022/12/06 04:54:35;;;;;;;13.90;8.95;;;;;;;9.36;64.46;101893.75;4917369;29;20048;-67
2022/12/06 04:57:03;;;;;;;14.60;8.70;;;;;;;9.38;64.62;101880.28;4917140;29;20498;-67
2022/12/06 04:59:29;;;;;;;14.25;9.18;;;;;;;9.40;64.19;101879.25;4917128;29;20048;-67
2022/12/06 05:01:56;;;;;;;13.57;8.32;;;;;;;9.40;64.55;101881.06;4917076;29;20048;-66
2022/12/06 05:04:23;;;;;;;16.25;9.80;;;;;;;9.39;64.38;101884.69;4899624;29;20044;-67
2022/12/06 05:06:49;;;;;;;12.65;8.25;;;;;;;9.41;64.31;101886.34;4916913;29;20091;-68
2022/12/06 05:09:16;;;;;;;14.30;9.15;;;;;;;9.44;64.59;101891.56;4917450;29;20395;-67
2022/12/06 05:11:42;;;;;;;18.15;9.65;;;;;;;9.45;64.58;101887.06;4917097;29;20040;-68
2022/12/06 05:14:09;;;;;;;14.27;9.10;;;;;;;9.48;64.38;101887.78;4917120;29;20036;-67
2022/12/06 05:16:35;;;;;;;12.90;8.27;;;;;;;9.48;64.48;101881.56;4916866;29;20443;-67
2022/12/06 05:19:02;;;;;;;17.38;9.10;;;;;;;9.49;64.52;101883.28;4916900;29;20048;-67
2022/12/06 05:21:29;;;;;;;17.50;8.18;;;;;;;9.48;64.47;101886.91;4927982;29;20052;-68
2022/12/06 05:23:56;;;;;;;15.77;8.68;;;;;;;9.49;64.31;101883.28;4935937;29;20054;-67
2022/12/06 05:26:25;;;;;;;17.75;9.68;;;;;;;9.47;64.47;101882.50;4935886;29;20040;-67
2022/12/06 05:28:52;;;;;;;21.92;9.18;;;;;;;9.47;64.31;101882.50;4935730;29;20043;-67
2022/12/06 05:31:19;;;;;;;16.30;8.40;;;;;;;9.47;64.15;101878.00;4935894;29;20048;-68
2022/12/06 05:33:47;;;;;;;21.15;9.60;;;;;;;9.46;64.24;101878.06;4935776;29;20543;-67
2022/12/06 05:36:21;;;;;;;16.88;8.70;;;;;;;9.46;64.32;101875.41;4935774;29;20035;-68
2022/12/06 05:38:48;;;;;;;16.73;8.80;;;;;;;9.47;64.41;101882.50;4919220;29;20048;-68
2022/12/06 05:41:19;;;;;;;17.98;8.73;;;;;;;9.46;64.47;101884.31;4920202;29;20071;-68
2022/12/06 05:43:45;;;;;;;15.93;8.55;;;;;;;9.45;64.45;101874.53;4920328;29;20100;-68
2022/12/06 05:46:12;;;;;;;14.85;8.50;;;;;;;9.45;64.24;101879.88;4932405;29;20040;-67
2022/12/06 05:48:38;;;;;;;16.65;8.77;;;;;;;9.43;64.26;101876.41;4939071;29;20486;-66
2022/12/06 05:51:05;;;;;;;15.90;7.60;;;;;;;9.44;64.42;101878.16;4939169;29;20048;-68
2022/12/06 05:53:31;;;;;;;12.68;8.35;;;;;;;9.43;64.26;101880.91;4936023;29;20380;-66
2022/12/06 05:56:10;;;;;;;18.27;8.18;;;;;;;9.43;64.47;101878.22;4920064;29;20052;-67
2022/12/06 05:58:37;;;;;;;14.10;7.63;;;;;;;9.43;64.44;101879.09;4903263;29;20550;-67
2022/12/06 06:01:06;;;;;;;12.10;7.45;;;;;;;9.43;64.23;101884.47;4919853;29;20056;-68
2022/12/06 06:03:33;;;;;;;13.13;7.68;;;;;;;9.45;64.21;101885.25;4919919;29;20447;-68
2022/12/06 06:06:00;;;;;;;17.98;8.13;;;;;;;9.48;64.39;101890.47;4920262;29;20055;-68
2022/12/06 06:08:28;;;;;;;17.60;8.27;;;;;;;9.49;64.55;101885.97;4919825;29;20067;-67
2022/12/06 06:10:55;;;;;;;17.30;7.65;;;;;;;9.52;64.26;101883.13;4918459;29;20411;-67
2022/12/06 06:13:22;;;;;;;14.38;7.97;;;;;;;9.50;64.42;101883.22;4916866;29;20044;-68
2022/12/06 06:15:49;;;;;;;16.08;7.78;;;;;;;9.49;64.14;101886.84;4900939;29;20049;-68
2022/12/06 06:18:17;;;;;;;11.82;7.47;;;;;;;9.47;64.41;101890.53;4900794;29;20492;-67
2022/12/06 06:20:49;;;;;;;15.48;7.22;;;;;;;9.46;64.25;101894.16;4900803;29;20560;-68
2022/12/06 06:23:16;;;;;;;17.65;7.65;;;;;;;9.45;64.48;101890.63;4900579;29;20049;-68
2022/12/06 06:25:42;;;;;;;13.35;7.53;;;;;;;9.43;64.46;101891.63;4933772;29;20095;-67
2022/12/06 06:28:09;;;;;;;14.77;7.30;;;;;;;9.43;64.33;101892.50;4924987;29;20400;-67
2022/12/06 06:30:35;;;;;;;12.23;8.00;;;;;;;9.45;64.12;101887.94;4919416;29;20048;-67
2022/12/06 06:33:02;;;;;;;13.35;7.13;;;;;;;9.49;64.23;101891.34;4919510;29;20052;-66
2022/12/06 06:35:29;;;;;;;10.30;6.47;;;;;;;9.51;63.99;101897.50;4912995;29;20046;-67
2022/12/06 06:37:55;;;;;;;11.32;6.68;;;;;;;9.53;63.80;101891.09;4917108;29;20534;-68
2022/12/06 06:40:22;;;;;;;13.95;6.68;;;;;;;9.54;64.09;101887.47;4917293;29;20510;-67
2022/12/06 06:42:48;;;;;;;16.20;6.47;;;;;;;9.55;64.22;101886.53;4908237;29;20092;-67
2022/12/06 06:45:15;;;;;;;12.68;6.32;;;;;;;9.54;63.92;101889.28;4913715;29;20535;-68
2022/12/06 06:47:42;;;;;;;15.93;6.28;;;;;;;9.53;64.04;101885.75;4910696;29;20041;-66
2022/12/06 06:50:09;;;;;;;12.65;6.53;;;;;;;9.54;63.95;101883.94;4911074;29;20035;-67
2022/12/06 06:52:35;;;;;;;14.73;6.72;;;;;;;9.56;63.80;101888.25;4912721;29;20096;-68
2022/12/06 06:55:02;;;;;;;9.25;6.03;;;;;;;9.56;63.77;101888.25;4908504;29;20048;-67
2022/12/06 06:57:30;;;;;;;14.45;6.63;;;;;;;9.56;64.01;101893.63;4916219;29;20499;-68
2022/12/06 06:59:56;;;;;;;15.30;7.93;;;;;;;9.51;63.74;101889.44;4918601;29;20522;-67
2022/12/06 07:02:23;;;;;;;13.48;7.53;;;;;;;9.49;63.95;101885.97;4918353;29;20419;-67
2022/12/06 07:04:50;;;;;;;13.43;7.60;;;;;;;9.46;63.66;101892.34;4919028;29;20059;-67
2022/12/06 07:07:17;;;;;;;10.40;6.25;;;;;;;9.45;63.70;101879.03;4901443;29;20044;-67
2022/12/06 07:09:47;;;;;;;14.25;7.55;;;;;;;9.43;63.84;101876.41;4918645;29;20095;-66
2022/12/06 07:12:14;;;;;;;16.05;7.47;;;;;;;9.42;63.72;101879.19;4901513;29;20040;-67
2022/12/06 07:14:40;;;;;;;11.82;6.97;;;;;;;9.41;63.94;101872.94;4922499;29;20032;-66
2022/12/06 07:17:07;;;;;;;13.60;7.20;;;;;;;9.37;63.89;101876.72;4937628;29;20091;-67
2022/12/06 07:19:33;;;;;;;13.18;6.82;;;;;;;9.34;63.89;101876.88;4925698;29;20044;-68
2022/12/06 07:22:00;;;;;;;15.70;7.35;;;;;;;9.30;63.80;101877.09;4918514;29;20050;-68
2022/12/06 07:24:27;;;;;;;9.60;7.53;;;;;;;9.28;63.67;101884.34;4918452;29;20040;-67
2022/12/06 07:26:55;;;;;;;10.90;6.50;;;;;;;9.26;63.88;101883.56;4918336;29;20048;-67
2022/12/06 07:29:23;;;;;;;12.30;7.07;;;;;;;9.23;63.93;101885.44;4918289;29;20050;-68
2022/12/06 07:31:49;;;;;;;12.35;5.95;;;;;;;9.22;63.75;101882.84;4900571;29;20059;-67
2022/12/06 07:34:16;;;;;;;11.45;6.43;;;;;;;9.20;63.83;101890.97;4902612;29;20436;-68
2022/12/06 07:36:42;;;;;;;13.18;7.03;;;;;;;9.19;64.05;101883.00;4899040;29;20052;-68
2022/12/06 07:39:09;;;;;;;11.30;6.18;;;;;;;9.18;63.88;101890.16;4906894;29;20120;-67
2022/12/06 07:45:01;;;;;;;11.45;5.97;;;;;;;9.19;63.84;101893.72;4888171;29;20052;-67
2022/12/06 07:47:34;;;;;;;12.60;5.10;;;;;;;9.16;64.04;101892.06;4917763;29;20051;-67
2022/12/06 07:50:01;;;;;;;8.05;5.50;;;;;;;9.14;64.08;101893.94;4918232;29;20392;-67
2022/12/06 07:52:33;;;;;;;11.93;5.68;;;;;;;9.13;63.97;101899.38;4917564;29;20134;-67
2022/12/06 07:55:00;;;;;;;10.90;5.68;;;;;;;9.13;63.87;101894.88;4933894;29;20099;-68
2022/12/06 07:57:27;;;;;;;10.07;5.82;;;;;;;9.11;63.92;101898.56;4936791;29;20054;-67
2022/12/06 07:59:54;;;;;;;10.82;5.57;;;;;;;9.12;63.99;101901.19;4936130;29;20075;-67
2022/12/06 08:02:24;;;;;;;9.32;5.25;;;;;;;9.09;64.15;101900.47;4936459;29;20132;-67
2022/12/06 08:04:51;;;;;;;14.85;5.80;;;;;;;9.07;63.96;101903.22;4920042;29;20050;-67
2022/12/06 08:07:18;;;;;;;11.80;5.63;;;;;;;9.07;64.01;101899.66;4936669;29;20039;-67
2022/12/06 08:09:45;;;;;;;10.35;5.55;;;;;;;9.08;64.12;101901.41;4921814;29;20107;-67
2022/12/06 08:12:11;;;;;;;10.65;5.65;;;;;;;9.07;64.26;101905.91;4900106;29;20377;-68
2022/12/06 08:14:38;;;;;;;13.13;5.45;;;;;;;9.06;64.18;101897.94;4898284;29;20048;-66
2022/12/06 08:17:05;;;;;;;11.82;4.95;;;;;;;9.06;64.17;101904.16;4908270;29;20495;-67
2022/12/06 08:19:32;;;;;;;11.45;5.68;;;;;;;9.08;64.07;101910.31;4926773;29;20044;-67
2022/12/06 08:21:58;;;;;;;12.30;5.40;;;;;;;9.09;64.23;101904.00;4936023;29;20040;-66
2022/12/06 08:24:25;;;;;;;10.07;5.10;;;;;;;9.10;64.33;101905.75;4921658;29;20048;-63
2022/12/06 08:26:52;;;;;;;11.70;5.25;;;;;;;9.12;64.15;101911.03;4917147;29;20045;-65
2022/12/06 08:29:19;;;;;;;10.63;4.75;;;;;;;9.12;64.30;101905.66;4917266;29;20044;-66
2022/12/06 08:31:45;;;;;;;10.57;5.03;;;;;;;9.13;64.42;101905.59;4916695;29;20048;-65
2022/12/06 08:34:12;;;;;;;7.43;4.35;;;;;;;9.17;64.46;101911.69;4915113;29;20044;-66
2022/12/06 08:36:40;;;;;;;9.10;4.85;;;;;;;9.18;64.25;101911.59;4914922;29;20103;-66
2022/12/06 08:39:07;;;;;;;6.93;4.47;;;;;;;9.21;64.18;101908.78;4915202;29;20041;-66
2022/12/06 08:44:20;;;;;;;9.70;4.60;;;;;;;9.26;64.23;101911.22;4915071;29;20056;-65
2022/12/06 08:46:47;;;;;;;9.07;5.22;;;;;;;9.26;64.42;101921.97;4915012;29;20044;-65
2022/12/06 08:49:15;;;;;;;9.60;5.43;;;;;;;9.27;64.15;101917.47;4898890;29;20551;-65
2022/12/06 08:51:43;;;;;;;9.35;4.90;;;;;;;9.30;64.19;101912.81;4916543;29;20044;-65
2022/12/06 08:54:12;;;;;;;9.50;5.30;;;;;;;9.34;64.20;101919.78;4900457;29;20047;-65
2022/12/06 08:56:39;;;;;;;11.23;5.13;;;;;;;9.38;64.50;101933.88;4916892;29;20051;-65
2022/12/06 08:59:06;;;;;;;9.65;5.53;;;;;;;9.40;64.32;101923.97;4916895;29;20044;-65
2022/12/06 09:01:33;;;;;;;7.00;4.30;;;;;;;9.43;64.13;101926.50;4899508;29;20059;-66
2022/12/06 09:04:06;;;;;;;9.70;4.57;;;;;;;9.44;64.19;101930.91;4912804;29;20044;-67
2022/12/06 09:06:32;;;;;;;11.15;5.18;;;;;;;9.45;64.05;101925.47;4899790;29;20081;-67
2022/12/06 09:08:59;;;;;;;10.35;5.15;;;;;;;9.47;64.16;101923.59;4916721;29;20403;-67
2022/12/06 09:11:26;;;;;;;9.05;5.43;;;;;;;9.47;64.31;101926.25;4916072;29;20048;-67
2022/12/06 09:13:52;;;;;;;8.02;4.55;;;;;;;9.50;64.17;101925.25;4902545;29;20060;-67
2022/12/06 09:16:22;;;;;;;6.13;4.70;;;;;;;9.51;64.30;101926.97;4919248;29;20044;-67
2022/12/06 09:18:50;;;;;;;11.15;4.97;;;;;;;9.54;64.09;101926.84;4920485;29;20043;-67
2022/12/06 09:21:24;;;;;;;8.80;4.95;;;;;;;9.57;64.00;101935.59;4920030;29;20506;-67
2022/12/06 09:23:54;;;;;;;8.13;4.60;;;;;;;9.59;64.15;101931.97;4919931;29;20051;-67
2022/12/06 09:26:21;;;;;;;8.88;4.93;;;;;;;9.63;63.93;101933.56;4927344;29;20036;-66
2022/12/06 09:28:49;;;;;;;9.73;4.95;;;;;;;9.65;64.13;101929.84;4921809;29;20055;-67
2022/12/06 09:31:17;;;;;;;7.68;4.80;;;;;;;9.69;64.13;101931.47;4920385;29;20518;-67
2022/12/06 09:33:45;;;;;;;8.55;4.88;;;;;;;9.72;63.91;101925.94;4919873;29;20051;-67
2022/12/06 09:36:20;;;;;;;9.93;5.20;;;;;;;9.75;63.91;101932.97;4920486;29;20546;-67
2022/12/06 09:39:22;;;;;;;5.93;4.47;;;;;;;9.78;63.89;101932.81;4920460;29;20051;-68
2022/12/06 09:41:48;;;;;;;8.98;5.00;;;;;;;9.81;63.76;101935.34;4919865;29;20052;-67
2022/12/06 09:44:33;;;;;;;7.63;4.82;;;;;;;9.80;63.71;101938.97;4920350;29;20048;-67
2022/12/06 09:47:23;;;;;;;6.97;4.60;;;;;;;9.78;63.89;101938.19;4920444;29;20048;-67
2022/12/06 09:50:15;;;;;;;6.03;4.95;;;;;;;9.75;63.96;101935.66;4919810;29;20448;-67
2022/12/06 09:52:51;;;;;;;8.73;5.50;;;;;;;9.76;63.75;101932.91;4908152;29;20048;-67
2022/12/06 09:55:25;;;;;;;;;;;;;;;9.78;63.77;101935.50;4903544;29;20415;-67
2022/12/06 09:58:12;;;;;;;8.40;4.55;;;;;;;9.84;63.57;101932.50;4920066;29;19970;-66
2022/12/06 10:01:08;;;;;;;7.50;4.85;;;;;;;9.85;63.90;101931.56;4919166;29;20052;-67
2022/12/06 10:04:17;;;;;;;8.40;4.30;;;;;;;9.86;63.80;101939.53;4910335;29;20059;-67
2022/12/06 10:07:00;;;;;;;6.60;4.20;;;;;;;9.90;63.76;101934.00;4905598;29;20052;-67
2022/12/06 10:09:49;;;;;;;6.70;4.00;;;;;;;9.96;63.93;101931.88;4933347;29;20036;-66
2022/12/06 10:12:27;;;;;;;6.82;4.72;;;;;;;10.06;64.08;101924.22;4938468;29;20135;-66
2022/12/06 10:15:21;;;;;;;6.20;4.05;;;;;;;10.15;63.79;101923.75;4938740;29;20508;-66
2022/12/06 10:17:48;;;;;;;8.80;4.07;;;;;;;10.26;63.65;101917.84;4938685;29;20499;-67
2022/12/06 10:20:33;;;;;;;5.55;3.92;;;;;;;10.33;63.70;101914.75;4911833;29;20043;-67
2022/12/06 10:23:17;;;;;;;6.80;3.97;;;;;;;10.43;63.49;101921.41;4918800;29;20096;-67
2022/12/06 10:25:59;;;;;;;9.95;3.90;;;;;;;10.56;63.71;101918.91;4935555;29;20040;-67
2022/12/06 10:28:43;;;;;;;5.40;3.80;;;;;;;10.69;63.28;101916.44;4926899;29;20044;-67
2022/12/06 10:31:21;;;;;;;6.68;3.40;;;;;;;10.78;63.28;101910.56;4933326;29;20099;-66
2022/12/06 10:33:59;;;;;;;6.32;3.35;;;;;;;10.90;62.98;101914.38;4911413;29;20033;-68
2022/12/06 10:36:39;;;;;;;6.05;3.60;;;;;;;10.97;63.11;101907.72;4905852;29;20064;-67
2022/12/06 10:39:18;;;;;;;4.63;3.10;;;;;;;11.10;62.82;101914.13;4902321;29;20499;-67
2022/12/06 10:41:50;;;;;;;6.28;3.58;;;;;;;11.20;62.82;101917.22;4937828;29;20047;-67
2022/12/06 10:44:33;;;;;;;4.22;3.05;;;;;;;11.30;62.21;101908.53;4926986;29;20487;-67
2022/12/06 10:47:20;;;;;;;4.82;3.08;;;;;;;11.41;62.33;101910.59;4919278;29;20045;-67
2022/12/06 10:49:57;;;;;;;4.18;2.88;;;;;;;11.50;62.04;101910.06;4900744;29;20056;-67
2022/12/06 10:52:27;;;;;;;5.00;3.15;;;;;;;11.57;61.82;101903.38;4898790;29;20058;-67
2022/12/06 10:55:12;;;;;;;7.00;2.75;;;;;;;11.60;61.37;101908.56;4918782;29;20051;-67
2022/12/06 10:57:54;;;;;;;5.68;2.47;;;;;;;11.63;61.47;101896.78;4918865;29;20040;-67
2022/12/06 11:00:38;;;;;;;5.10;2.70;;;;;;;11.62;60.92;101898.59;4931455;29;20075;-68
2022/12/06 11:03:27;;;;;;;4.93;2.83;;;;;;;11.63;61.23;101900.31;4936532;29;20087;-67
2022/12/06 11:06:00;;;;;;;4.68;2.58;;;;;;;11.65;60.86;101900.25;4929536;29;20455;-67
2022/12/06 11:08:32;;;;;;;4.63;2.90;;;;;;;11.70;60.81;101901.69;4909911;29;20048;-67
2022/12/06 11:11:02;;;;;;;5.28;2.88;;;;;;;11.75;60.68;101901.44;4917842;29;20047;-68
2022/12/06 11:13:39;;;;;;;4.22;2.75;;;;;;;11.81;60.30;101900.22;4918086;29;20078;-68
2022/12/06 11:16:14;;;;;;;5.65;3.05;;;;;;;11.83;60.15;101896.50;4918601;29;20471;-68
2022/12/06 11:18:42;;;;;;;4.47;2.60;;;;;;;11.87;59.88;101898.03;4918588;29;20048;-67
2022/12/06 11:21:37;;;;;;;5.50;2.60;;;;;;;11.95;60.09;101903.00;4918681;29;20051;-67
2022/12/06 11:24:24;;;;;;;5.82;2.22;;;;;;;12.03;59.64;101901.56;4917938;29;20452;-67
2022/12/06 11:27:17;;;;;;;6.43;2.40;;;;;;;12.06;59.54;101893.31;4917595;29;20052;-68
2022/12/06 11:29:47;;;;;;;3.08;2.00;;;;;;;12.08;59.48;101887.84;4917897;29;20107;-68
2022/12/06 11:32:15;;;;;;;2.60;2.00;;;;;;;12.06;59.32;101882.53;4917337;29;20052;-67
2022/12/06 11:34:47;;;;;;;6.38;2.13;;;;;;;12.08;59.11;101887.84;4899907;29;20048;-67
2022/12/06 11:37:19;;;;;;;3.80;2.33;;;;;;;12.12;59.09;101889.38;4917858;29;20074;-68
2022/12/06 11:39:50;;;;;;;3.90;1.90;;;;;;;12.13;58.90;101887.56;4917352;29;20044;-67
2022/12/06 11:42:23;;;;;;;3.80;1.95;;;;;;;12.12;58.62;101881.28;4898443;29;20056;-68
2022/12/06 11:44:56;;;;;;;3.55;2.17;;;;;;;12.13;58.34;101884.84;4898630;29;20045;-68
2022/12/06 11:47:23;;;;;;;3.72;2.17;;;;;;;12.12;58.34;101878.59;4898613;29;20068;-67
2022/12/06 11:49:53;;;;;;;4.28;2.28;;;;;;;12.12;57.92;101880.44;4898804;29;20400;-67
2022/12/06 11:52:28;;;;;;;6.38;2.80;;;;;;;12.11;57.80;101879.56;4898246;29;20104;-67
2022/12/06 11:55:00;;;;;;;5.35;2.40;;;;;;;12.12;57.68;101875.03;4898737;29;20045;-68
2022/12/06 11:57:42;;;;;;;3.78;2.58;;;;;;;12.12;57.78;101872.34;4899032;29;20509;-67
2022/12/06 12:00:23;;;;;;;4.22;2.22;;;;;;;12.14;57.66;101868.59;4905365;29;20049;-67
2022/12/06 12:02:53;;;;;;;4.38;2.70;;;;;;;12.17;57.43;101875.63;4916543;29;20119;-67
2022/12/06 12:05:29;;;;;;;4.28;2.63;;;;;;;12.19;57.37;101871.00;4900723;29;20048;-68
2022/12/06 12:08:01;;;;;;;5.43;2.25;;;;;;;12.24;57.28;101861.69;4917862;29;20044;-67
2022/12/06 12:10:40;;;;;;;4.75;2.15;;;;;;;12.28;56.96;101860.53;4917548;29;20055;-68
2022/12/06 12:15:58;;;;;;;4.60;2.20;;;;;;;12.32;56.54;101858.53;4916976;29;20091;-67